Terminal Aerodrome Forecast
Issued by NWS

Current Version | Previous Version | Text Only | Print | Product List | Glossary On
Versions: 1 2 3 4 5 6 7 8 9 10 11 12 13
860
FTUS42 KMLB 252321
TAFSFB
TAF
KSFB 252321Z 2600/2624 14005KT P6SM VCSH SCT050 BKN100
     FM260100 16003KT P6SM FEW030
     FM261600 15008KT P6SM SCT035
     FM262000 13008KT P6SM VCTS SCT040CB SCT100=

USA.gov is the U.S. government's official web portal to all federal, state and local government web resources and services.